createdAt,value
2016-07-05T00:00:58.692Z,73.61
2016-07-05T00:01:58.774Z,73.96
2016-07-05T00:02:58.691Z,73.67
2016-07-05T00:03:58.690Z,73.58
2016-07-05T00:04:58.684Z,73.77
2016-07-05T00:05:59.306Z,73.67
2016-07-05T00:06:59.177Z,73.86
2016-07-05T00:07:58.681Z,73.71
2016-07-05T00:08:59.415Z,73.99
2016-07-05T00:09:59.535Z,73.52
2016-07-05T00:10:58.770Z,73.43
2016-07-05T00:11:58.669Z,73.71
2016-07-05T00:12:58.659Z,73.8
2016-07-05T00:13:58.667Z,73.52
2016-07-05T00:14:58.657Z,73.61
2016-07-05T00:15:58.657Z,73.33
2016-07-05T00:16:58.654Z,73.71
2016-07-05T00:17:58.653Z,73.14
2016-07-05T00:18:58.648Z,72.66
2016-07-05T00:19:58.650Z,72.56
2016-07-05T00:20:58.645Z,72.66
2016-07-05T00:21:58.635Z,72.56
2016-07-05T00:22:58.638Z,72.37
2016-07-05T00:23:58.635Z,71.99
2016-07-05T00:24:58.633Z,72.56
2016-07-05T00:25:58.630Z,71.55
2016-07-05T00:26:58.620Z,71.7
2016-07-05T00:27:58.626Z,72.02
2016-07-05T00:28:58.611Z,71.89
2016-07-05T00:29:58.604Z,71.89
2016-07-05T00:30:58.615Z,71.7
2016-07-05T00:31:58.617Z,71.42
2016-07-05T00:32:58.613Z,71.99
2016-07-05T00:33:58.609Z,71.8
2016-07-05T00:34:58.607Z,72.56
2016-07-05T00:35:58.603Z,72.08
2016-07-05T00:36:58.604Z,71.99
2016-07-05T00:37:58.601Z,72.08
2016-07-05T00:38:58.596Z,72.08
2016-07-05T00:39:58.592Z,72.37
2016-07-05T00:40:58.589Z,72.28
2016-07-05T00:41:58.592Z,71.99
2016-07-05T00:42:58.574Z,72.37
2016-07-05T00:43:58.574Z,72.47
2016-07-05T00:44:58.580Z,72.72
2016-07-05T00:45:58.583Z,73.04
2016-07-05T00:46:58.577Z,72.94
2016-07-05T00:47:58.621Z,72.81
2016-07-05T00:48:58.761Z,72.33
2016-07-05T00:49:59.120Z,72.62
2016-07-05T00:50:58.879Z,72.91
2016-07-05T00:51:58.567Z,72.91
2016-07-05T00:52:58.561Z,73.39
2016-07-05T00:53:58.541Z,73.29
2016-07-05T00:54:58.542Z,73.19
2016-07-05T00:55:58.554Z,73.67
2016-07-05T00:56:58.550Z,73
2016-07-05T00:57:58.546Z,73.54
2016-07-05T00:58:58.544Z,73.63
2016-07-05T00:59:58.544Z,73.54
2016-07-05T01:00:58.688Z,73.92
2016-07-05T01:01:58.524Z,73.83
2016-07-05T01:02:58.531Z,74.02
2016-07-05T01:03:58.518Z,74.3
2016-07-05T01:04:58.518Z,73.92
2016-07-05T01:05:58.505Z,74.21
2016-07-05T01:06:58.509Z,75.07
2016-07-05T01:07:58.512Z,74.78
2016-07-05T01:08:58.502Z,74.59
2016-07-05T01:09:58.496Z,74.59
2016-07-05T01:10:58.499Z,74.11
2016-07-05T01:11:58.499Z,75.45
2016-07-05T01:12:58.502Z,74.98
2016-07-05T01:13:58.492Z,74.93
2016-07-05T01:14:59.982Z,75.22
2016-07-05T01:15:59.004Z,75.03
2016-07-05T01:16:58.482Z,74.93
2016-07-05T01:17:58.483Z,75.32
2016-07-05T01:18:58.476Z,75.7
2016-07-05T01:19:58.472Z,75.13
2016-07-05T01:20:58.473Z,75.7
2016-07-05T01:21:58.469Z,75.98
2016-07-05T01:22:58.464Z,76.08
2016-07-05T01:24:58.456Z,75.98
2016-07-05T01:25:59.061Z,76.27
2016-07-05T01:26:58.496Z,75.89
2016-07-05T01:27:58.448Z,76.46
2016-07-05T01:28:58.447Z,76.65
2016-07-05T01:29:58.444Z,76.46
2016-07-05T01:30:58.436Z,76.46
2016-07-05T01:31:58.428Z,77.03
2016-07-05T01:32:58.424Z,76.94
2016-07-05T01:33:58.422Z,76.84
2016-07-05T01:34:58.414Z,76.75
2016-07-05T01:35:58.415Z,77.13
2016-07-05T01:36:58.410Z,76.94
2016-07-05T01:37:58.409Z,77.8
2016-07-05T01:38:58.408Z,77.51
2016-07-05T01:39:58.405Z,77.32
2016-07-05T01:40:58.393Z,77.32
2016-07-05T01:41:58.404Z,77.32
2016-07-05T01:42:58.398Z,77.61
2016-07-05T01:43:58.388Z,77.51
2016-07-05T01:44:58.385Z,77.89
2016-07-05T01:45:58.386Z,77.99
2016-07-05T01:46:58.381Z,77.99
2016-07-05T01:47:58.374Z,78.18
2016-07-05T01:48:58.376Z,78.28
2016-07-05T01:49:58.384Z,78.18
2016-07-05T01:50:58.365Z,78.18
2016-07-05T01:51:58.359Z,78.62
2016-07-05T01:52:58.360Z,77.86
2016-07-05T01:53:58.355Z,78.09
2016-07-05T01:54:58.356Z,78.33
2016-07-05T01:55:58.347Z,78.37
2016-07-05T01:56:58.347Z,79.1
2016-07-05T01:57:58.339Z,78.66
2016-07-05T01:58:58.334Z,79.04
2016-07-05T01:59:58.517Z,79.14
2016-07-05T02:00:58.392Z,78.75
2016-07-05T02:01:58.503Z,78.75
2016-07-05T02:02:58.439Z,78.62
2016-07-05T02:03:58.370Z,78.72
2016-07-05T02:04:58.438Z,78.66
2016-07-05T02:05:58.438Z,78.52
2016-07-05T02:06:58.479Z,78.94
2016-07-05T02:07:58.429Z,79.14
2016-07-05T02:08:59.290Z,79.23
2016-07-05T02:09:58.295Z,79.04
2016-07-05T02:10:58.296Z,78.85
2016-07-05T02:11:58.283Z,78.56
2016-07-05T02:12:58.285Z,78.94
2016-07-05T02:13:58.281Z,78.75
2016-07-05T02:15:13.167Z,78.85
2016-07-05T02:15:58.522Z,79.04
2016-07-05T02:16:58.767Z,78.85
2016-07-05T02:17:58.314Z,78.85
2016-07-05T02:18:58.263Z,78.66
2016-07-05T02:19:58.262Z,78.37
2016-07-05T02:20:58.255Z,78.37
2016-07-05T02:21:58.252Z,78.41
2016-07-05T02:22:58.254Z,78.13
2016-07-05T02:23:58.250Z,78.22
2016-07-05T02:24:58.242Z,78.22
2016-07-05T02:25:58.237Z,78.22
2016-07-05T02:26:58.238Z,77.65
2016-07-05T02:27:58.225Z,78.03
2016-07-05T02:28:58.225Z,77.65
2016-07-05T02:29:58.219Z,77.36
2016-07-05T02:30:58.215Z,77.65
2016-07-05T02:31:58.222Z,77.45
2016-07-05T02:32:59.552Z,77.26
2016-07-05T02:33:58.208Z,77.45
2016-07-05T02:34:59.415Z,77.45
2016-07-05T02:35:59.376Z,77.59
2016-07-05T02:36:58.362Z,77.4
2016-07-05T02:37:58.187Z,77.11
2016-07-05T02:38:58.186Z,76.73
2016-07-05T02:39:58.187Z,76.64
2016-07-05T02:40:58.182Z,76.92
2016-07-05T02:41:58.193Z,76.82
2016-07-05T02:43:00.125Z,76.73
2016-07-05T02:43:58.951Z,76.82
2016-07-05T02:44:58.176Z,77.11
2016-07-05T02:45:58.170Z,76.45
2016-07-05T02:46:58.159Z,76.45
2016-07-05T02:47:58.169Z,76.64
2016-07-05T02:48:58.158Z,76.73
2016-07-05T02:49:58.152Z,76.73
2016-07-05T02:50:58.155Z,76.06
2016-07-05T02:51:58.156Z,76.25
2016-07-05T02:52:58.153Z,76.2
2016-07-05T02:53:58.146Z,76.1
2016-07-05T02:54:58.146Z,76.16
2016-07-05T02:55:58.140Z,75.91
2016-07-05T02:56:58.130Z,75.91
2016-07-05T02:57:58.125Z,75.24
2016-07-05T02:58:58.124Z,75.34
2016-07-05T02:59:58.122Z,75.71
2016-07-05T03:00:58.121Z,75.52
2016-07-05T03:01:58.123Z,75.52
2016-07-05T03:02:58.124Z,74.95
2016-07-05T03:03:58.112Z,75.24
2016-07-05T03:04:58.116Z,75.05
2016-07-05T03:05:58.105Z,75.24
2016-07-05T03:06:58.107Z,75.34
2016-07-05T03:07:58.094Z,75.52
2016-07-05T03:08:58.100Z,74.76
2016-07-05T03:09:58.104Z,74.95
2016-07-05T03:10:58.096Z,74.85
2016-07-05T03:11:58.101Z,75.34
2016-07-05T03:12:58.095Z,74.95
2016-07-05T03:13:58.096Z,74.57
2016-07-05T03:14:58.085Z,74.48
2016-07-05T03:15:58.088Z,74.76
2016-07-05T03:16:58.080Z,74.66
2016-07-05T03:17:58.080Z,74.95
2016-07-05T03:18:58.068Z,74.76
2016-07-05T03:19:58.075Z,74.85
2016-07-05T03:20:58.069Z,74.38
2016-07-05T03:21:58.064Z,74.76
2016-07-05T03:22:58.069Z,74.66
2016-07-05T03:23:58.562Z,74.76
2016-07-05T03:24:58.509Z,74.95
2016-07-05T03:25:58.610Z,74.66
2016-07-05T03:26:58.558Z,74.8
2016-07-05T03:27:58.402Z,74.61
2016-07-05T03:28:58.044Z,74.8
2016-07-05T03:29:58.038Z,74.8
2016-07-05T03:30:58.046Z,74.51
2016-07-05T03:31:58.043Z,74.22
2016-07-05T03:33:58.037Z,74.13
2016-07-05T03:34:58.027Z,74.13
2016-07-05T03:35:58.047Z,73.75
2016-07-05T03:36:58.029Z,73.84
2016-07-05T03:37:58.030Z,73.46
2016-07-05T03:38:58.024Z,73.65
2016-07-05T03:39:58.025Z,74.13
2016-07-05T03:40:58.010Z,73.5
2016-07-05T03:41:58.013Z,73.4
2016-07-05T03:42:58.015Z,73.3
2016-07-05T03:43:58.013Z,73.21
2016-07-05T03:44:58.004Z,73.02
2016-07-05T03:45:58.001Z,72.83
2016-07-05T03:46:57.999Z,72.63
2016-07-05T03:47:58.009Z,72.63
2016-07-05T03:48:57.994Z,72.54
2016-07-05T03:49:58.002Z,72.92
2016-07-05T03:50:57.994Z,72.44
2016-07-05T03:51:59.525Z,72.44
2016-07-05T03:52:58.927Z,72.54
2016-07-05T03:53:58.099Z,72.16
2016-07-05T03:54:58.008Z,72.16
2016-07-05T03:55:57.988Z,72.09
2016-07-05T03:56:57.986Z,71.71
2016-07-05T03:57:57.987Z,71.81
2016-07-05T03:58:57.979Z,72
2016-07-05T03:59:57.973Z,72.38
2016-07-05T04:00:59.426Z,71.42
2016-07-05T04:01:59.381Z,71.42
2016-07-05T04:02:58.004Z,71.52
2016-07-05T04:03:57.974Z,71.81
2016-07-05T04:04:57.975Z,71.81
2016-07-05T04:05:57.979Z,71.42
2016-07-05T04:06:57.959Z,71.23
2016-07-05T04:07:57.965Z,71.14
2016-07-05T04:08:57.971Z,70.98
2016-07-05T04:09:57.967Z,70.79
2016-07-05T04:10:57.964Z,70.5
2016-07-05T04:11:57.953Z,70.21
2016-07-05T04:12:57.963Z,70.6
2016-07-05T04:13:57.950Z,70.12
2016-07-05T04:14:57.958Z,69.58
2016-07-05T04:15:57.960Z,69.96
2016-07-05T04:16:57.954Z,69.2
2016-07-05T04:17:57.958Z,69.13
2016-07-05T04:18:57.954Z,68.37
2016-07-05T04:19:57.966Z,68.18
2016-07-05T04:20:57.958Z,68.08
2016-07-05T04:21:57.941Z,68.08
2016-07-05T04:22:57.939Z,67.92
2016-07-05T04:23:57.938Z,67.54
2016-07-05T04:24:57.954Z,67.35
2016-07-05T04:25:57.950Z,66.86
2016-07-05T04:26:57.942Z,66.86
2016-07-05T04:27:57.952Z,66.49
2016-07-05T04:28:57.947Z,65.94
2016-07-05T04:29:57.949Z,65.94
2016-07-05T04:30:57.945Z,66.13
2016-07-05T04:31:57.947Z,65.17
2016-07-05T04:32:57.936Z,64.92
2016-07-05T04:33:57.951Z,64.63
2016-07-05T04:34:57.939Z,63.86
2016-07-05T04:35:57.937Z,63.51
2016-07-05T04:36:57.936Z,63.35
2016-07-05T04:37:57.951Z,62.29
2016-07-05T04:38:57.956Z,61.84
2016-07-05T04:39:57.946Z,61.16
2016-07-05T04:40:57.939Z,60.49
2016-07-05T04:41:57.951Z,60.11
2016-07-05T04:42:57.947Z,60.14
2016-07-05T04:43:57.960Z,59.37
2016-07-05T04:44:57.952Z,59.17
2016-07-05T04:46:57.958Z,58.92
2016-07-05T04:47:57.963Z,58.34
2016-07-05T04:48:58.057Z,57.89
2016-07-05T04:49:57.961Z,57.14
2016-07-05T04:50:57.966Z,56.66
2016-07-05T04:51:58.119Z,55.73
2016-07-05T04:52:58.080Z,55.56
2016-07-05T04:53:57.977Z,54.43
2016-07-05T04:54:58.433Z,53.59
2016-07-05T04:56:57.989Z,52.02
2016-07-05T04:57:57.999Z,51.06
2016-07-05T04:58:58.007Z,50.12
2016-07-05T04:59:58.013Z,49.46
2016-07-05T05:00:58.017Z,48.22
2016-07-05T05:01:58.019Z,47.94
2016-07-05T05:02:58.024Z,47.09
2016-07-05T05:03:58.032Z,47.19
2016-07-05T05:04:58.040Z,46.7
2016-07-05T05:05:58.052Z,46.02
2016-07-05T05:06:58.053Z,45.65
2016-07-05T05:07:58.058Z,44.98
2016-07-05T05:08:58.069Z,44.49
2016-07-05T05:09:58.543Z,43.82
2016-07-05T05:10:59.439Z,43.82
2016-07-05T05:11:58.650Z,43.33
2016-07-05T05:12:58.099Z,42.85
2016-07-05T05:13:58.795Z,42.26
2016-07-05T05:14:58.108Z,42.26
2016-07-05T05:15:58.402Z,42.17
2016-07-05T05:16:58.124Z,41.88
2016-07-05T05:17:58.139Z,41.12
2016-07-05T05:18:58.141Z,40.25
2016-07-05T05:19:59.018Z,40.66
2016-07-05T05:20:58.157Z,39.41
2016-07-05T05:21:58.156Z,39.03
2016-07-05T05:22:58.391Z,39.03
2016-07-05T05:23:58.178Z,38.25
2016-07-05T05:24:58.197Z,38.15
2016-07-05T05:25:58.330Z,38.04
2016-07-05T05:26:58.210Z,38.23
2016-07-05T05:27:58.221Z,37.94
2016-07-05T05:28:58.226Z,38.02
2016-07-05T05:29:58.239Z,38.21
2016-07-05T05:30:58.243Z,38.12
2016-07-05T05:31:58.249Z,38.12
2016-07-05T05:32:58.257Z,38.39
2016-07-05T05:33:58.264Z,38.48
2016-07-05T05:34:58.281Z,38.48
2016-07-05T05:35:58.279Z,38.48
2016-07-05T05:36:58.289Z,38.95
2016-07-05T05:37:58.291Z,38.76
2016-07-05T05:38:58.296Z,38.93
2016-07-05T05:39:58.305Z,39.41
2016-07-05T05:40:58.322Z,39.39
2016-07-05T05:41:58.327Z,39.97
2016-07-05T05:42:58.338Z,40.17
2016-07-05T05:43:58.340Z,40.25
2016-07-05T05:44:58.343Z,40.44
2016-07-05T05:45:58.353Z,40.53
2016-07-05T05:46:58.352Z,40.34
2016-07-05T05:47:58.351Z,40.83
2016-07-05T05:48:58.374Z,41.09
2016-07-05T05:49:58.381Z,41
2016-07-05T05:50:58.384Z,41.19
2016-07-05T05:51:58.393Z,41.27
2016-07-05T05:52:58.394Z,41.27
2016-07-05T05:53:58.397Z,41.54
2016-07-05T05:54:58.412Z,42.12
2016-07-05T05:55:58.416Z,42.12
2016-07-05T05:56:58.423Z,42.31
2016-07-05T05:57:58.425Z,42.31
2016-07-05T05:58:58.433Z,42.31
2016-07-05T05:59:58.437Z,41.75
2016-07-05T06:00:59.646Z,41.75
2016-07-05T06:01:58.448Z,41.39
2016-07-05T06:02:58.456Z,41.21
2016-07-05T06:03:58.464Z,41.02
2016-07-05T06:04:58.466Z,41.11
2016-07-05T06:05:58.574Z,40.63
2016-07-05T06:06:58.479Z,40.26
2016-07-05T06:07:58.487Z,40.46
2016-07-05T06:08:58.496Z,40.65
2016-07-05T06:09:58.504Z,40.19
2016-07-05T06:10:59.209Z,40.09
2016-07-05T06:11:58.499Z,40
2016-07-05T06:12:58.520Z,40
2016-07-05T06:13:58.576Z,40.09
2016-07-05T06:14:58.528Z,39.97
2016-07-05T06:15:58.525Z,39.97
2016-07-05T06:16:59.300Z,40.17
2016-07-05T06:17:58.549Z,40.26
2016-07-05T06:18:58.556Z,40.17
2016-07-05T06:19:58.561Z,40.26
2016-07-05T06:20:58.570Z,40.26
2016-07-05T06:21:58.566Z,40.53
2016-07-05T06:22:58.573Z,40.63
2016-07-05T06:23:58.594Z,40.34
2016-07-05T06:24:58.588Z,40.73
2016-07-05T06:25:58.592Z,41.02
2016-07-05T06:26:58.601Z,40.81
2016-07-05T06:28:00.102Z,41.29
2016-07-05T06:28:59.507Z,41.09
2016-07-05T06:29:58.619Z,41.39
2016-07-05T06:30:58.764Z,41.29
2016-07-05T06:31:58.844Z,41.48
2016-07-05T06:32:58.637Z,41.58
2016-07-05T06:33:58.648Z,41.58
2016-07-05T06:34:58.651Z,41.67
2016-07-05T06:35:58.658Z,41.87
2016-07-05T06:37:00.155Z,42.16
2016-07-05T06:37:58.664Z,42.16
2016-07-05T06:39:58.671Z,41.97
2016-07-05T06:40:58.812Z,41.97
2016-07-05T06:41:58.678Z,42.07
2016-07-05T06:42:59.224Z,42.07
2016-07-05T06:43:58.693Z,42.28
2016-07-05T06:44:58.718Z,42.16
2016-07-05T06:45:58.697Z,42.07
2016-07-05T06:46:58.703Z,42.16
2016-07-05T06:47:58.713Z,42.07
2016-07-05T06:48:58.712Z,42.25
2016-07-05T06:49:58.724Z,42.25
2016-07-05T06:50:58.732Z,42.45
2016-07-05T06:52:12.059Z,42.37
2016-07-05T06:52:58.743Z,42.57
2016-07-05T06:53:58.745Z,42.08
2016-07-05T06:54:58.743Z,42.28
2016-07-05T06:55:58.758Z,42.28
2016-07-05T06:56:58.759Z,41.89
2016-07-05T06:57:58.766Z,42.3
2016-07-05T06:58:58.769Z,41.91
2016-07-05T06:59:58.784Z,41.62
2016-07-05T07:00:58.789Z,41.62
2016-07-05T07:01:58.786Z,41.45
2016-07-05T07:02:58.808Z,41.25
2016-07-05T07:03:58.798Z,41.35
2016-07-05T07:04:58.810Z,40.99
2016-07-05T07:05:58.815Z,40.79
2016-07-05T07:06:58.830Z,40.59
2016-07-05T07:07:58.825Z,40.13
2016-07-05T07:08:58.836Z,40.13
2016-07-05T07:09:58.833Z,39.84
2016-07-05T07:10:58.842Z,39.94
2016-07-05T07:11:58.865Z,39.84
2016-07-05T07:12:58.856Z,39.65
2016-07-05T07:13:58.867Z,38.89
2016-07-05T07:14:58.874Z,39.08
2016-07-05T07:15:58.880Z,38.89
2016-07-05T07:16:58.901Z,38.91
2016-07-05T07:17:58.899Z,38.62
2016-07-05T07:18:59.770Z,38.32
2016-07-05T07:19:59.275Z,38.15
2016-07-05T07:20:58.922Z,38.15
2016-07-05T07:21:58.946Z,38.37
2016-07-05T07:22:58.948Z,38.19
2016-07-05T07:23:58.952Z,38.01
2016-07-05T07:24:58.956Z,36.88
2016-07-05T07:25:58.974Z,35.94
2016-07-05T07:26:58.991Z,34.81
2016-07-05T07:27:59.704Z,34.24
2016-07-05T07:28:59.009Z,33.3
2016-07-05T07:29:59.025Z,32.06
2016-07-05T07:30:59.183Z,31.29
2016-07-05T07:31:59.307Z,30.43
2016-07-05T07:32:59.422Z,29.68
2016-07-05T07:33:59.084Z,29.49
2016-07-05T07:34:59.090Z,28.74
2016-07-05T07:35:59.118Z,27.67
2016-07-05T07:36:59.138Z,27
2016-07-05T07:37:59.150Z,27.11
2016-07-05T07:38:59.173Z,25.84
2016-07-05T07:39:59.189Z,26.24
2016-07-05T07:40:59.203Z,24.97
2016-07-05T07:41:59.223Z,24.49
2016-07-05T07:42:59.245Z,24.69
2016-07-05T07:43:59.262Z,24.3
2016-07-05T07:44:59.279Z,23.53
2016-07-05T07:45:59.290Z,23.44
2016-07-05T07:46:59.320Z,22.85
2016-07-05T07:47:59.339Z,23.16
2016-07-05T07:49:00.047Z,23.06
2016-07-05T07:49:59.371Z,22.48
2016-07-05T07:50:59.388Z,21.5
2016-07-05T07:51:59.410Z,21.11
2016-07-05T07:52:59.431Z,21.41
2016-07-05T07:53:59.454Z,21.11
2016-07-05T07:54:59.468Z,21.51
2016-07-05T07:55:59.918Z,21.53
2016-07-05T07:57:00.504Z,21.14
2016-07-05T07:57:59.567Z,21.06
2016-07-05T07:58:59.550Z,20.08
2016-07-05T07:59:59.584Z,18.91
2016-07-05T08:00:59.627Z,18.43
2016-07-05T08:01:59.616Z,17.93
2016-07-05T08:02:59.639Z,18.22
2016-07-05T08:03:59.654Z,18.01
2016-07-05T08:04:59.677Z,18.01
2016-07-05T08:05:59.695Z,18.79
2016-07-05T08:06:59.714Z,18.38
2016-07-05T08:07:59.727Z,18.77
2016-07-05T08:08:59.749Z,19.36
2016-07-05T08:09:59.766Z,19.45
2016-07-05T08:10:59.787Z,19.54
2016-07-05T08:11:59.802Z,19.53
2016-07-05T08:12:59.816Z,20.11
2016-07-05T08:13:59.837Z,20.2
2016-07-05T08:14:59.853Z,20.7
2016-07-05T08:15:59.872Z,20.79
2016-07-05T08:16:59.896Z,20.79
2016-07-05T08:17:59.907Z,20.01
2016-07-05T08:18:59.929Z,20.01
2016-07-05T08:19:59.935Z,20.3
2016-07-05T08:20:59.967Z,20.3
2016-07-05T08:21:59.984Z,19.61
2016-07-05T08:23:00.002Z,19.71
2016-07-05T08:24:00.023Z,19.9
2016-07-05T08:25:00.042Z,20.29
2016-07-05T08:26:00.065Z,20.88
2016-07-05T08:27:00.084Z,20.5
2016-07-05T08:28:00.104Z,19.82
2016-07-05T08:29:00.119Z,19.73
2016-07-05T08:30:00.137Z,19.64
2016-07-05T08:31:00.162Z,19.44
2016-07-05T08:32:00.187Z,19.15
2016-07-05T08:33:00.208Z,18.67
2016-07-05T08:34:00.224Z,18.48
2016-07-05T08:35:00.246Z,18.56
2016-07-05T08:36:00.265Z,18.55
2016-07-05T08:37:00.283Z,18.54
2016-07-05T08:38:00.419Z,19.5
2016-07-05T08:39:00.321Z,19.68
2016-07-05T08:40:00.374Z,19.88
2016-07-05T08:41:00.358Z,20.17
2016-07-05T08:42:00.385Z,20.46
2016-07-05T08:43:00.399Z,20.75
2016-07-05T08:44:00.419Z,20.84
2016-07-05T08:45:00.432Z,20.45
2016-07-05T08:46:00.455Z,20.94
2016-07-05T08:47:00.502Z,21.23
2016-07-05T08:48:00.490Z,21.12
2016-07-05T08:49:00.509Z,21.02
2016-07-05T08:50:00.880Z,21.69
2016-07-05T08:51:00.542Z,22.25
2016-07-05T08:52:00.562Z,23.02
2016-07-05T08:53:00.569Z,23.59
2016-07-05T08:54:00.739Z,24.35
2016-07-05T08:55:00.607Z,24.25
2016-07-05T08:56:00.618Z,24.53
2016-07-05T08:57:00.635Z,24.82
2016-07-05T08:58:00.677Z,25.12
2016-07-05T08:59:00.673Z,25.31
2016-07-05T09:00:00.675Z,25.89
2016-07-05T09:01:00.698Z,26.07
2016-07-05T09:02:00.710Z,26.07
2016-07-05T09:03:00.721Z,26.45
2016-07-05T09:04:00.737Z,26.84
2016-07-05T09:05:02.071Z,27.41
2016-07-05T09:06:01.365Z,28.08
2016-07-05T09:07:01.072Z,28.45
2016-07-05T09:08:00.805Z,28.64
2016-07-05T09:09:00.813Z,29.4
2016-07-05T09:10:00.809Z,30.08
2016-07-05T09:11:00.826Z,29.97
2016-07-05T09:12:00.837Z,30.46
2016-07-05T09:13:00.848Z,30.17
2016-07-05T09:14:00.858Z,29.97
2016-07-05T09:15:02.157Z,30.55
2016-07-05T09:16:00.905Z,30.75
2016-07-05T09:17:00.899Z,30.38
2016-07-05T09:18:00.916Z,30.38
2016-07-05T09:19:01.245Z,30.47
2016-07-05T09:20:01.462Z,30.77
2016-07-05T09:21:01.114Z,30.58
2016-07-05T09:22:00.938Z,30.29
2016-07-05T09:23:00.964Z,30.88
2016-07-05T09:24:00.970Z,30.78
2016-07-05T09:25:00.975Z,30.41
2016-07-05T09:26:00.985Z,30.6
2016-07-05T09:27:01.001Z,30.02
2016-07-05T09:28:01.006Z,30.22
2016-07-05T09:29:01.015Z,30.32
2016-07-05T09:30:01.029Z,29.64
2016-07-05T09:31:01.035Z,29.44
2016-07-05T09:32:01.045Z,29.64
2016-07-05T09:33:01.052Z,29.43
2016-07-05T09:34:01.075Z,29.74
2016-07-05T09:35:01.077Z,29.64
2016-07-05T09:36:01.087Z,29.74
2016-07-05T09:37:01.098Z,29.44
2016-07-05T09:38:01.123Z,29.54
2016-07-05T09:39:01.118Z,30.13
2016-07-05T09:40:01.117Z,29.44
2016-07-05T09:41:01.139Z,29.54
2016-07-05T09:42:01.145Z,29.93
2016-07-05T09:43:01.144Z,29.74
2016-07-05T09:44:01.164Z,30.11
2016-07-05T09:45:01.166Z,29.92
2016-07-05T09:46:01.184Z,30.19
2016-07-05T09:47:01.190Z,30.49
2016-07-05T09:48:01.188Z,30.38
2016-07-05T09:49:01.210Z,31.04
2016-07-05T09:50:01.207Z,31.14
2016-07-05T09:51:01.227Z,31.53
2016-07-05T09:52:01.238Z,31.73
2016-07-05T09:53:01.250Z,31.53
2016-07-05T09:54:01.256Z,31.63
2016-07-05T09:55:01.263Z,31.73
2016-07-05T09:56:01.281Z,31.61
2016-07-05T09:57:02.040Z,31.71
2016-07-05T09:59:01.640Z,31.82
2016-07-05T10:00:01.301Z,31.82
2016-07-05T10:01:01.322Z,31.73
2016-07-05T10:02:01.665Z,31.24
2016-07-05T10:03:01.328Z,31.34
2016-07-05T10:04:01.344Z,31.53
2016-07-05T10:05:01.509Z,31.24
2016-07-05T10:06:01.357Z,31.35
2016-07-05T10:07:02.061Z,31.16
2016-07-05T10:08:02.278Z,31.06
2016-07-05T10:09:01.390Z,30.29
2016-07-05T10:10:01.789Z,30.29
2016-07-05T10:11:01.593Z,29.32
2016-07-05T10:12:01.408Z,29.63
2016-07-05T10:13:01.427Z,29.82
2016-07-05T10:14:01.432Z,29.24
2016-07-05T10:15:01.439Z,29.24
2016-07-05T10:16:01.448Z,29.64
2016-07-05T10:17:01.458Z,29.25
2016-07-05T10:18:01.465Z,28.77
2016-07-05T10:20:01.480Z,28.19
2016-07-05T10:21:01.488Z,28.08
2016-07-05T10:22:01.504Z,27.98
2016-07-05T10:23:01.905Z,28.57
2016-07-05T10:24:02.353Z,28.77
2016-07-05T10:25:03.027Z,28.86
2016-07-05T10:26:01.547Z,28.49
2016-07-05T10:27:01.549Z,28.19
2016-07-05T10:28:01.563Z,27.8
2016-07-05T10:29:01.565Z,27.9
2016-07-05T10:30:01.578Z,28.09
2016-07-05T10:31:01.587Z,28
2016-07-05T10:33:02.675Z,28
2016-07-05T10:34:02.082Z,28
2016-07-05T10:35:01.643Z,28
2016-07-05T10:36:01.631Z,28.19
2016-07-05T10:37:01.647Z,28.09
2016-07-05T10:38:02.179Z,28.11
2016-07-05T10:39:01.658Z,28.09
2016-07-05T10:40:01.673Z,27.8
2016-07-05T10:47:03.235Z,27.73
2016-07-05T10:48:01.746Z,27.83
2016-07-05T10:49:01.755Z,27.91
2016-07-05T10:50:01.770Z,27.62
2016-07-05T10:51:01.778Z,27.81
2016-07-05T10:52:01.784Z,28.01
2016-07-05T10:53:01.793Z,27.91
2016-07-05T10:54:01.806Z,27.62
2016-07-05T10:55:01.813Z,27.93
2016-07-05T10:56:01.823Z,27.54
2016-07-05T10:57:01.832Z,27.64
2016-07-05T10:58:01.846Z,27.06
2016-07-05T10:59:01.856Z,27.25
2016-07-05T11:00:01.859Z,27.06
2016-07-05T11:01:01.867Z,26.87
2016-07-05T11:02:01.878Z,26.87
2016-07-05T11:03:01.887Z,26.88
2016-07-05T11:04:01.894Z,26.78
2016-07-05T11:05:01.917Z,26.68
2016-07-05T11:06:01.919Z,26.49
2016-07-05T11:07:01.928Z,25.71
2016-07-05T11:08:01.942Z,26.1
2016-07-05T11:09:01.947Z,26.2
2016-07-05T11:10:01.960Z,25.71
2016-07-05T11:11:01.967Z,25.81
2016-07-05T11:12:01.978Z,26.1
2016-07-05T11:13:01.990Z,26
2016-07-05T11:14:02.001Z,25.33
2016-07-05T11:15:16.900Z,25.13
2016-07-05T11:16:02.017Z,25.34
2016-07-05T11:17:02.077Z,25.13
2016-07-05T11:18:02.037Z,25.43
2016-07-05T11:19:02.695Z,24.93
2016-07-05T11:20:02.058Z,25.51
2016-07-05T11:21:02.068Z,25.51
2016-07-05T11:22:02.077Z,25.61
2016-07-05T11:23:03.585Z,25.81
2016-07-05T11:24:02.399Z,26
2016-07-05T11:25:02.104Z,26.29
2016-07-05T11:26:02.420Z,26
2016-07-05T11:27:02.627Z,26.29
2016-07-05T11:28:02.129Z,26.48
2016-07-05T11:29:02.138Z,26.77
2016-07-05T11:30:02.156Z,26.57
2016-07-05T11:31:02.266Z,26.38
2016-07-05T11:32:02.178Z,26.76
2016-07-05T11:33:02.185Z,26.66
2016-07-05T11:34:02.194Z,26.76
2016-07-05T11:35:02.211Z,26.46
2016-07-05T11:36:02.218Z,26.45
2016-07-05T11:37:02.230Z,26.64
2016-07-05T11:38:02.228Z,26.64
2016-07-05T11:39:02.243Z,27.13
2016-07-05T11:40:02.252Z,27.03
2016-07-05T11:41:02.270Z,27.05
2016-07-05T11:42:02.946Z,27.15
2016-07-05T11:43:02.679Z,26.95
2016-07-05T11:44:02.298Z,26.95
2016-07-05T11:45:02.352Z,26.76
2016-07-05T11:46:02.316Z,27.73
2016-07-05T11:47:02.331Z,27.62
2016-07-05T11:48:02.336Z,27.72
2016-07-05T11:49:02.364Z,28.01
2016-07-05T11:50:02.358Z,28.11
2016-07-05T11:51:03.267Z,27.81
2016-07-05T11:52:03.812Z,27.81
2016-07-05T11:53:02.383Z,27.93
2016-07-05T11:54:02.715Z,27.73
2016-07-05T11:55:03.145Z,27.83
2016-07-05T11:56:02.676Z,27.73
2016-07-05T11:57:02.426Z,27.93
2016-07-05T11:58:02.432Z,27.93
2016-07-05T11:59:02.445Z,28.03
2016-07-05T12:00:02.453Z,28.3
2016-07-05T12:01:02.463Z,28.01
2016-07-05T12:02:02.459Z,28.2
2016-07-05T12:03:02.481Z,28.32
2016-07-05T12:04:02.493Z,28.59
2016-07-05T12:05:02.500Z,28.4
2016-07-05T12:06:02.508Z,28.79
2016-07-05T12:07:02.517Z,29.08
2016-07-05T12:08:02.533Z,28.79
2016-07-05T12:09:02.540Z,28.99
2016-07-05T12:10:02.544Z,28.89
2016-07-05T12:11:02.559Z,28.59
2016-07-05T12:12:02.571Z,29.3
2016-07-05T12:13:02.576Z,29.69
2016-07-05T12:14:02.588Z,28.61
2016-07-05T12:15:02.599Z,29.38
2016-07-05T12:16:02.603Z,29.38
2016-07-05T12:17:02.606Z,29.67
2016-07-05T12:18:02.628Z,29.47
2016-07-05T12:19:02.635Z,29.75
2016-07-05T12:20:02.642Z,29.56
2016-07-05T12:21:02.643Z,29.95
2016-07-05T12:22:02.657Z,30.05
2016-07-05T12:23:02.666Z,30.32
2016-07-05T12:24:02.675Z,30.34
2016-07-05T12:25:02.691Z,30.32
2016-07-05T12:26:02.697Z,29.93
2016-07-05T12:27:02.707Z,30.03
2016-07-05T12:28:02.711Z,30.52
2016-07-05T12:29:02.714Z,30.22
2016-07-05T12:30:02.728Z,30.62
2016-07-05T12:31:02.734Z,30.52
2016-07-05T12:33:04.156Z,31.01
2016-07-05T12:34:03.308Z,31.01
2016-07-05T12:35:02.969Z,31.2
2016-07-05T12:36:02.878Z,31.09
2016-07-05T12:37:02.788Z,31.48
2016-07-05T12:38:03.396Z,31.57
2016-07-05T12:39:02.796Z,31.38
2016-07-05T12:40:02.813Z,31.67
2016-07-05T12:41:02.813Z,31.38
2016-07-05T12:42:03.136Z,31.87
2016-07-05T12:43:03.446Z,32.15
2016-07-05T12:44:03.356Z,32.34
2016-07-05T12:45:03.412Z,32.24
2016-07-05T12:46:02.870Z,32.15
2016-07-05T12:47:02.883Z,32.53
2016-07-05T12:48:02.887Z,32.55
2016-07-05T12:49:02.900Z,32.35
2016-07-05T12:50:02.901Z,32.26
2016-07-05T12:51:02.912Z,32.55
2016-07-05T12:52:02.921Z,32.37
2016-07-05T12:53:02.932Z,31.79
2016-07-05T12:54:02.936Z,31.9
2016-07-05T12:55:02.946Z,31.6
2016-07-05T12:56:02.956Z,31.72
2016-07-05T12:57:02.966Z,31.33
2016-07-05T12:58:02.969Z,30.94
2016-07-05T12:59:02.978Z,30.84
2016-07-05T13:00:04.486Z,30.65
2016-07-05T13:01:03.916Z,30.18
2016-07-05T13:02:03.280Z,30.37
2016-07-05T13:03:03.012Z,30.08
2016-07-05T13:04:03.582Z,30.18
2016-07-05T13:05:03.031Z,29.98
2016-07-05T13:06:03.298Z,29.5
2016-07-05T13:07:03.047Z,29.6
2016-07-05T13:08:03.050Z,29.5
2016-07-05T13:09:03.073Z,29.52
2016-07-05T13:10:04.646Z,28.93
2016-07-05T13:11:03.080Z,28.83